^^
Meteo Knjazevac Station Historical Data
Daily Summary for January 26, 2021 Units:  English    Metric   Both
Daily Weekly Monthly Yearly Custom
  High: Low: Average:
Temperature: 86.5 °F 46.9 °F 65.6 °F
Dew Point: 62.8 °F 45.3 °F 52.8 °F
Humidity: 98% 35% 68%
Wind Speed: 5mph 0mph 1.5mph
Wind Gust: 9mph - -
Wind- - SW
Pressure: 30.24 in 30.11 in -
Precipitation: 0.00 in    
Historical Graphs
 
 
Tabular Data for January 26, 2021
Time Temperature Dew Point Pressure Wind Wind Speed Wind Gust Humidity Rainfall Rate (Hourly) solar Conditions
00:00 54.5 °F 49.8 °F 30.22 in West 1 mph 4 mph 84% 0.00 in 0 W/m2
00:10 54 °F 49.2 °F 30.22 in Calm   2 mph 84% 0.00 in 0 W/m2
00:20 53.4 °F 49 °F 30.22 in WNW 3 mph 6 mph 85% 0.00 in 0 W/m2
00:30 53.6 °F 49.5 °F 30.22 in WNW 2 mph 4 mph 86% 0.00 in 0 W/m2
00:40 53.6 °F 49.5 °F 30.22 in WNW 2 mph 4 mph 86% 0.00 in 0 W/m2
00:50 53.4 °F 49.3 °F 30.22 in NW 1 mph 4 mph 86% 0.00 in 0 W/m2
01:00 53.2 °F 49.2 °F 30.22 in WNW 1 mph 4 mph 86% 0.00 in 0 W/m2
01:10 52.9 °F 48.8 °F 30.22 in West 2 mph 3 mph 86% 0.00 in 0 W/m2
01:20 52.3 °F 48.3 °F 30.22 in WNW 2 mph 3 mph 86% 0.00 in 0 W/m2
01:30 52 °F 47.9 °F 30.22 in WNW 1 mph 4 mph 86% 0.00 in 0 W/m2
01:40 51.6 °F 48.2 °F 30.22 in WNW 2 mph 4 mph 88% 0.00 in 0 W/m2
01:50 51.6 °F 48.5 °F 30.22 in Calm   4 mph 89% 0.00 in 0 W/m2
02:00 51.4 °F 48 °F 30.22 in WNW 2 mph 4 mph 88% 0.00 in 0 W/m2
02:10 51.1 °F 48 °F 30.23 in West 1 mph 4 mph 89% 0.00 in 0 W/m2
02:20 50.7 °F 47.6 °F 30.23 in West 2 mph 4 mph 89% 0.00 in 0 W/m2
02:30 50.4 °F 47.5 °F 30.22 in WNW 2 mph 5 mph 90% 0.00 in 0 W/m2
02:40 50.4 °F 47.5 °F 30.22 in WNW 1 mph 5 mph 90% 0.00 in 0 W/m2
02:50 50.4 °F 47.5 °F 30.22 in Calm   3 mph 90% 0.00 in 0 W/m2
03:00 50.4 °F 47.8 °F 30.22 in NW 2 mph 3 mph 91% 0.00 in 0 W/m2
03:10 50.4 °F 47.5 °F 30.22 in NW 2 mph 4 mph 90% 0.00 in 0 W/m2
03:20 50.2 °F 47.4 °F 30.22 in NW 1 mph 3 mph 90% 0.00 in 0 W/m2
03:30 49.8 °F 47 °F 30.22 in West 2 mph 4 mph 90% 0.00 in 0 W/m2
03:40 49.5 °F 46.6 °F 30.22 in West 2 mph 3 mph 90% 0.00 in 0 W/m2
03:50 49.1 °F 46.6 °F 30.22 in WNW 3 mph 6 mph 91% 0.00 in 0 W/m2
04:00 48.9 °F 46.4 °F 30.22 in West 2 mph 6 mph 91% 0.00 in 0 W/m2
04:10 48.7 °F 46.2 °F 30.22 in West 1 mph 4 mph 91% 0.00 in 0 W/m2
04:20 48.6 °F 46.6 °F 30.22 in NW 1 mph 3 mph 93% 0.00 in 0 W/m2
04:30 48.6 °F 46.6 °F 30.22 in West 1 mph 3 mph 93% 0.00 in 0 W/m2
04:40 48.6 °F 46.6 °F 30.22 in West 3 mph 5 mph 93% 0.00 in 0 W/m2
04:50 48.4 °F 46.4 °F 30.22 in West 1 mph 5 mph 93% 0.00 in 0 W/m2
05:00 48.2 °F 46.3 °F 30.23 in West 1 mph 5 mph 93% 0.00 in 0 W/m2
05:10 48 °F 46.4 °F 30.23 in WNW 2 mph 6 mph 94% 0.00 in 0 W/m2
05:20 48.4 °F 46.7 °F 30.23 in West 2 mph 6 mph 94% 0.00 in 0 W/m2
05:30 48.2 °F 46.3 °F 30.23 in West 2 mph 5 mph 93% 0.00 in 0 W/m2
05:40 47.8 °F 45.9 °F 30.23 in West 2 mph 4 mph 93% 0.00 in 0 W/m2
05:50 47.7 °F 45.7 °F 30.23 in West 2 mph 5 mph 93% 0.00 in 0 W/m2
06:00 47.5 °F 45.8 °F 30.23 in West 1 mph 5 mph 94% 0.00 in 0 W/m2
06:10 47.3 °F 45.6 °F 30.23 in West 2 mph 5 mph 94% 0.00 in 0 W/m2
06:20 47.3 °F 45.7 °F 30.23 in West 5 mph 6 mph 94% 0.00 in 0 W/m2
06:30 47.3 °F 45.7 °F 30.24 in WSW 2 mph 6 mph 94% 0.00 in 9 W/m2
06:40 46.9 °F 45.3 °F 30.24 in WSW 3 mph 5 mph 94% 0.00 in 17 W/m2
06:50 46.9 °F 45.6 °F 30.24 in West 3 mph 5 mph 95% 0.00 in 26 W/m2
07:00 47.5 °F 46.4 °F 30.24 in WNW 2 mph 5 mph 96% 0.00 in 33 W/m2
07:10 47.8 °F 46.5 °F 30.24 in West 2 mph 5 mph 95% 0.00 in 39 W/m2
07:20 47.8 °F 46.8 °F 30.24 in West 2 mph 3 mph 96% 0.00 in 103 W/m2
07:30 48.2 °F 47.1 °F 30.24 in West 1 mph 5 mph 96% 0.00 in 130 W/m2
07:40 48.4 °F 47.3 °F 30.24 in West 1 mph 2 mph 96% 0.00 in 137 W/m2
07:50 48.8 °F 47.7 °F 30.24 in West 1 mph 4 mph 96% 0.00 in 188 W/m2
08:00 49.5 °F 48.9 °F 30.24 in West 2 mph 4 mph 98% 0.00 in 218 W/m2
08:10 50.4 °F 49.8 °F 30.24 in WSW 1 mph 2 mph 98% 0.00 in 242 W/m2
08:20 51.3 °F 50.2 °F 30.24 in Calm   3 mph 96% 0.00 in 285 W/m2
08:30 53.1 °F 52 °F 30.24 in West 2 mph 3 mph 96% 0.00 in 322 W/m2
08:40 55.8 °F 54.1 °F 30.24 in WSW 2 mph 3 mph 94% 0.00 in 352 W/m2
08:50 57.9 °F 55 °F 30.24 in West 1 mph 3 mph 90% 0.00 in 380 W/m2
09:00 60.1 °F 55.9 °F 30.24 in West 1 mph 3 mph 86% 0.00 in 407 W/m2
09:10 62.1 °F 57.5 °F 30.24 in Calm   3 mph 85% 0.00 in 434 W/m2
09:20 64.1 °F 58.1 °F 30.24 in SW 1 mph 3 mph 81% 0.00 in 460 W/m2
09:30 65.7 °F 58.6 °F 30.24 in SW 1 mph 2 mph 78% 0.00 in 484 W/m2
09:40 67.7 °F 60.2 °F 30.24 in SSW 1 mph 4 mph 77% 0.00 in 508 W/m2
09:50 69.3 °F 59.9 °F 30.23 in SSW 2 mph 4 mph 72% 0.00 in 531 W/m2
10:00 70.9 °F 60.2 °F 30.24 in SSW 2 mph 5 mph 69% 0.00 in 552 W/m2
10:10 72.2 °F 61 °F 30.23 in SSW 1 mph 4 mph 68% 0.00 in 277 W/m2
10:20 73.8 °F 61.3 °F 30.23 in SE 2 mph 6 mph 65% 0.00 in 193 W/m2
10:30 74.9 °F 61 °F 30.23 in ESE 3 mph 7 mph 62% 0.00 in 610 W/m2
10:40 76.1 °F 61.2 °F 30.22 in East 2 mph 6 mph 60% 0.00 in 461 W/m2
10:50 77 °F 61.6 °F 30.22 in ENE 1 mph 5 mph 59% 0.00 in 124 W/m2
11:00 78.1 °F 62.1 °F 30.22 in East 2 mph 5 mph 58% 0.00 in 520 W/m2
11:10 78.8 °F 62.8 °F 30.21 in Calm   5 mph 58% 0.00 in 666 W/m2
11:20 79.7 °F 61.6 °F 30.21 in North 1 mph 5 mph 54% 0.00 in 677 W/m2
11:30 80.6 °F 61.9 °F 30.21 in SSE 2 mph 5 mph 53% 0.00 in 686 W/m2
11:40 81.3 °F 60.9 °F 30.21 in WSW 2 mph 5 mph 50% 0.00 in 693 W/m2
11:50 82 °F 59.8 °F 30.20 in SW 2 mph 5 mph 47% 0.00 in 699 W/m2
12:00 82.6 °F 58.5 °F 30.20 in SSE 2 mph 5 mph 44% 0.00 in 702 W/m2
12:10 83.3 °F 57.8 °F 30.19 in North 1 mph 5 mph 42% 0.00 in 705 W/m2
12:20 83.7 °F 58.2 °F 30.19 in East 1 mph 5 mph 42% 0.00 in 706 W/m2
12:30 84.2 °F 56.6 °F 30.19 in NE 2 mph 6 mph 39% 0.00 in 705 W/m2
12:40 84.7 °F 56.3 °F 30.19 in NE 1 mph 6 mph 38% 0.00 in 702 W/m2
12:50 85.1 °F 57.4 °F 30.18 in ENE 2 mph 6 mph 39% 0.00 in 698 W/m2
13:00 85.5 °F 57 °F 30.18 in Calm   5 mph 38% 0.00 in 692 W/m2
13:10 85.8 °F 57.3 °F 30.18 in SW 5 mph 7 mph 38% 0.00 in 685 W/m2
13:20 86 °F 58.2 °F 30.17 in West 3 mph 8 mph 39% 0.00 in 676 W/m2
13:30 86.4 °F 57.8 °F 30.17 in West 2 mph 5 mph 38% 0.00 in 666 W/m2
13:40 86.2 °F 57.6 °F 30.17 in South 1 mph 6 mph 38% 0.00 in 654 W/m2
13:50 86.4 °F 57 °F 30.16 in South 2 mph 4 mph 37% 0.00 in 640 W/m2
14:00 86.5 °F 57.9 °F 30.16 in WSW 3 mph 6 mph 38% 0.00 in 625 W/m2
14:10 86.4 °F 55.5 °F 30.16 in WSW 2 mph 7 mph 35% 0.00 in 609 W/m2
14:20 86.2 °F 55.3 °F 30.15 in WSW 2 mph 6 mph 35% 0.00 in 591 W/m2
14:30 86.2 °F 56.9 °F 30.15 in South 2 mph 6 mph 37% 0.00 in 572 W/m2
14:40 86.4 °F 57 °F 30.15 in West 1 mph 5 mph 37% 0.00 in 551 W/m2
14:50 86.4 °F 57.8 °F 30.14 in SW 2 mph 6 mph 38% 0.00 in 530 W/m2
15:00 86.3 °F 56.2 °F 30.14 in SSE 1 mph 5 mph 36% 0.00 in 507 W/m2
15:10 86.4 °F 57 °F 30.14 in NNE 2 mph 4 mph 37% 0.00 in 483 W/m2
15:20 86.3 °F 56.2 °F 30.13 in NE 1 mph 7 mph 36% 0.00 in 458 W/m2
15:30 86.4 °F 57 °F 30.13 in NE 1 mph 9 mph 37% 0.00 in 432 W/m2
15:40 86.4 °F 57.1 °F 30.13 in North 2 mph 6 mph 37% 0.00 in 406 W/m2
15:50 86.5 °F 57.2 °F 30.13 in NNE 2 mph 6 mph 37% 0.00 in 378 W/m2
16:00 86.4 °F 56.3 °F 30.12 in SE 2 mph 4 mph 36% 0.00 in 350 W/m2
16:10 86.2 °F 56.9 °F 30.12 in NE 2 mph 4 mph 37% 0.00 in 322 W/m2
16:20 86.1 °F 55.3 °F 30.12 in NNE 1 mph 6 mph 35% 0.00 in 293 W/m2
16:30 85.8 °F 55 °F 30.12 in NNE 2 mph 5 mph 35% 0.00 in 264 W/m2
16:40 85.6 °F 56.4 °F 30.12 in Calm   3 mph 37% 0.00 in 235 W/m2
16:50 85.3 °F 54.5 °F 30.12 in North 2 mph 5 mph 35% 0.00 in 206 W/m2
17:00 84.9 °F 55.7 °F 30.11 in North 2 mph 7 mph 37% 0.00 in 174 W/m2
17:10 84.4 °F 56 °F 30.11 in North 2 mph 6 mph 38% 0.00 in 146 W/m2
17:20 83.7 °F 56.1 °F 30.11 in North 2 mph 6 mph 39% 0.00 in 118 W/m2
17:30 83.1 °F 56.3 °F 30.11 in North 3 mph 7 mph 40% 0.00 in 90 W/m2
17:40 82.4 °F 57 °F 30.11 in North 2 mph 7 mph 42% 0.00 in 64 W/m2
17:50 81.6 °F 57 °F 30.11 in Calm   4 mph 43% 0.00 in 41 W/m2
18:00 80.8 °F 56.8 °F 30.11 in Calm   2 mph 44% 0.00 in 23 W/m2
18:10 79.6 °F 56.4 °F 30.12 in NNW 2 mph 5 mph 45% 0.00 in 9 W/m2
18:20 78.6 °F 56.6 °F 30.12 in South 2 mph 4 mph 47% 0.00 in 5 W/m2
18:30 77.3 °F 56.7 °F 30.12 in South 3 mph 5 mph 49% 0.00 in 0 W/m2
18:40 75.9 °F 56.5 °F 30.12 in South 2 mph 5 mph 51% 0.00 in 0 W/m2
18:50 74.8 °F 56.6 °F 30.12 in SSW 2 mph 3 mph 53% 0.00 in 0 W/m2
19:00 73.5 °F 55.9 °F 30.12 in SW 2 mph 3 mph 54% 0.00 in 0 W/m2
19:10 72.3 °F 55.2 °F 30.12 in SW 2 mph 5 mph 55% 0.00 in 0 W/m2
19:20 71.4 °F 55.4 °F 30.12 in WSW 2 mph 4 mph 57% 0.00 in 0 W/m2
19:30 70.5 °F 55 °F 30.12 in WSW 2 mph 3 mph 58% 0.00 in 0 W/m2
19:40 69.7 °F 54.8 °F 30.12 in SW 2 mph 3 mph 59% 0.00 in 0 W/m2
19:50 68.8 °F 54.4 °F 30.13 in West 2 mph 3 mph 60% 0.00 in 0 W/m2
20:00 67.9 °F 53.5 °F 30.13 in WSW 2 mph 3 mph 60% 0.00 in 0 W/m2
20:10 66.9 °F 53.4 °F 30.13 in West 1 mph 3 mph 62% 0.00 in 0 W/m2
20:20 66 °F 53.1 °F 30.13 in WSW 1 mph 2 mph 63% 0.00 in 0 W/m2
20:30 65.2 °F 52.7 °F 30.13 in SW 1 mph 2 mph 64% 0.00 in 0 W/m2
20:40 64.5 °F 52.1 °F 30.14 in Calm   2 mph 64% 0.00 in 0 W/m2
20:50 63.9 °F 51.9 °F 30.14 in Calm   2 mph 65% 0.00 in 0 W/m2
21:00 63.3 °F 52.2 °F 30.14 in Calm     67% 0.00 in 0 W/m2
21:10 62.8 °F 52.1 °F 30.14 in WNW 1 mph 2 mph 68% 0.00 in 0 W/m2
21:20 62.2 °F 51.5 °F 30.14 in South 1 mph 3 mph 68% 0.00 in 0 W/m2
21:30 61.9 °F 52 °F 30.14 in SW 1 mph 2 mph 70% 0.00 in 0 W/m2
21:40 61.5 °F 52.4 °F 30.14 in Calm   4 mph 72% 0.00 in 0 W/m2
21:50 61 °F 52 °F 30.15 in Calm   2 mph 72% 0.00 in 0 W/m2
22:00 60.6 °F 50.7 °F 30.15 in Calm   1 mph 70% 0.00 in 0 W/m2
22:10 60 °F 51 °F 30.15 in Calm     72% 0.00 in 0 W/m2
22:20 59.4 °F 50.7 °F 30.15 in Calm   2 mph 73% 0.00 in 0 W/m2
22:30 58.7 °F 50.1 °F 30.15 in Calm   1 mph 73% 0.00 in 0 W/m2
22:40 58.3 °F 50 °F 30.15 in Calm   2 mph 74% 0.00 in 0 W/m2
22:50 57.7 °F 49.5 °F 30.15 in NW 1 mph 2 mph 74% 0.00 in 0 W/m2
23:00 57.4 °F 49.5 °F 30.15 in Calm   2 mph 75% 0.00 in 0 W/m2
23:10 57.2 °F 50.1 °F 30.15 in Calm   1 mph 77% 0.00 in 0 W/m2
23:20 56.8 °F 49.6 °F 30.16 in Calm     77% 0.00 in 0 W/m2
23:30 56.4 °F 49.6 °F 30.16 in Calm   1 mph 78% 0.00 in 0 W/m2
23:40 56.1 °F 49.4 °F 30.16 in Calm   2 mph 78% 0.00 in 0 W/m2
23:50 55.8 °F 49 °F 30.16 in Calm   2 mph 78% 0.00 in 0 W/m2
Knjazevac, Serbia
Compliments of Weather Underground - 2 mb